createdAt,value
2022-11-12T00:01:17.017Z,11.20
2022-11-12T00:03:45.038Z,12.57
2022-11-12T00:06:13.033Z,11.80
2022-11-12T00:08:41.099Z,11.37
2022-11-12T00:11:10.445Z,11.63
2022-11-12T00:13:38.442Z,11.37
2022-11-12T00:16:07.285Z,11.43
2022-11-12T00:18:35.284Z,12.50
2022-11-12T00:21:03.262Z,11.90
2022-11-12T00:23:31.255Z,11.27
2022-11-12T00:26:00.757Z,11.50
2022-11-12T00:28:34.792Z,11.70
2022-11-12T00:31:12.729Z,10.93
2022-11-12T00:33:42.151Z,11.03
2022-11-12T00:36:11.016Z,11.87
2022-11-12T00:38:39.042Z,11.77
2022-11-12T00:41:07.329Z,11.30
2022-11-12T00:43:36.702Z,10.40
2022-11-12T00:46:05.083Z,11.30
2022-11-12T00:48:33.065Z,10.53
2022-11-12T00:51:02.618Z,10.33
2022-11-12T00:53:30.604Z,10.87
2022-11-12T00:56:02.663Z,10.90
2022-11-12T00:58:31.512Z,10.80
2022-11-12T01:01:07.685Z,11.57
2022-11-12T01:03:35.995Z,10.70
2022-11-12T01:06:05.713Z,10.57
2022-11-12T01:08:34.297Z,10.53
2022-11-12T01:11:10.023Z,11.27
2022-11-12T01:13:43.835Z,10.63
2022-11-12T01:16:15.967Z,11.07
2022-11-12T01:18:44.594Z,10.87
2022-11-12T01:21:12.810Z,10.70
2022-11-12T01:23:42.627Z,10.07
2022-11-12T01:26:12.697Z,10.80
2022-11-12T01:28:41.123Z,10.37
2022-11-12T01:31:15.556Z,10.87
2022-11-12T01:33:44.441Z,11.37
2022-11-12T01:36:12.972Z,11.77
2022-11-12T01:38:42.277Z,11.50
2022-11-12T01:41:12.656Z,11.03
2022-11-12T01:43:41.069Z,11.43
2022-11-12T01:46:18.433Z,10.10
2022-11-12T01:48:51.049Z,10.53
2022-11-12T01:51:21.554Z,10.27
2022-11-12T01:53:52.568Z,10.30
2022-11-12T01:56:23.377Z,10.50
2022-11-12T01:58:56.590Z,10.87
2022-11-12T02:01:27.033Z,10.90
2022-11-12T02:03:55.208Z,10.90
2022-11-12T02:06:24.537Z,10.60
2022-11-12T02:08:53.203Z,10.60
2022-11-12T02:11:22.687Z,12.30
2022-11-12T02:13:58.575Z,11.10
2022-11-12T02:16:30.213Z,11.27
2022-11-12T02:18:58.270Z,11.80
2022-11-12T02:21:28.742Z,11.47
2022-11-12T02:24:01.467Z,11.97
2022-11-12T02:26:33.997Z,12.20
2022-11-12T02:29:02.552Z,12.23
2022-11-12T02:31:30.803Z,12.40
2022-11-12T02:33:58.806Z,12.67
2022-11-12T02:36:29.037Z,12.60
2022-11-12T02:38:57.330Z,13.03
2022-11-12T02:41:25.761Z,13.83
2022-11-12T02:43:53.805Z,12.97
2022-11-12T02:46:22.010Z,12.90
2022-11-12T02:48:50.147Z,14.03
2022-11-12T02:51:18.159Z,14.63
2022-11-12T02:53:47.539Z,14.17
2022-11-12T02:56:15.572Z,14.70
2022-11-12T02:58:43.596Z,14.43
2022-11-12T03:01:11.683Z,13.27
2022-11-12T03:03:39.772Z,13.37
2022-11-12T03:06:08.716Z,14.23
2022-11-12T03:08:36.714Z,13.37
2022-11-12T03:11:10.444Z,14.83
2022-11-12T03:13:38.901Z,15.50
2022-11-12T03:16:07.171Z,14.73
2022-11-12T03:18:35.344Z,15.27
2022-11-12T03:21:03.460Z,15.17
2022-11-12T03:23:31.842Z,14.90
2022-11-12T03:25:59.927Z,15.33
2022-11-12T03:28:29.526Z,14.90
2022-11-12T03:30:59.870Z,14.17
2022-11-12T03:33:27.944Z,15.47
2022-11-12T03:35:56.056Z,15.17
2022-11-12T03:38:24.408Z,14.97
2022-11-12T03:40:52.680Z,15.63
2022-11-12T03:43:20.699Z,14.93
2022-11-12T03:45:50.087Z,14.93
2022-11-12T03:48:18.200Z,15.17
2022-11-12T03:50:46.208Z,15.63
2022-11-12T03:53:14.496Z,14.57
2022-11-12T03:55:42.637Z,14.43
2022-11-12T03:58:10.664Z,15.37
2022-11-12T04:00:38.670Z,15.90
2022-11-12T04:03:08.057Z,14.23
2022-11-12T04:05:53.306Z,16.20
2022-11-12T04:08:38.284Z,15.70
2022-11-12T04:11:10.214Z,15.47
2022-11-12T04:13:39.001Z,15.50
2022-11-12T04:16:26.935Z,15.67
2022-11-12T04:19:15.744Z,16.17
2022-11-12T04:21:55.783Z,16.17
2022-11-12T04:24:45.650Z,16.50
2022-11-12T04:27:16.315Z,17.57
2022-11-12T04:30:03.053Z,17.60
2022-11-12T04:32:31.946Z,16.87
2022-11-12T04:35:01.956Z,17.77
2022-11-12T04:37:44.455Z,18.77
2022-11-12T04:40:31.603Z,17.40
2022-11-12T04:43:17.124Z,18.83
2022-11-12T04:45:46.622Z,19.53
2022-11-12T04:48:15.106Z,19.67
2022-11-12T04:50:45.781Z,19.90
2022-11-12T04:53:14.099Z,19.60
2022-11-12T04:55:42.193Z,20.13
2022-11-12T04:58:10.200Z,20.33
2022-11-12T05:00:38.234Z,20.60
2022-11-12T05:03:06.259Z,19.97
2022-11-12T05:05:34.414Z,20.50
2022-11-12T05:08:04.546Z,21.53
2022-11-12T05:10:33.229Z,20.10
2022-11-12T05:13:01.271Z,21.37
2022-11-12T05:15:29.296Z,21.93
2022-11-12T05:17:57.325Z,21.27
2022-11-12T05:20:25.357Z,21.10
2022-11-12T05:23:08.318Z,22.63
2022-11-12T05:25:37.802Z,21.43
2022-11-12T05:28:07.169Z,22.43
2022-11-12T05:30:35.838Z,20.50
2022-11-12T05:33:03.878Z,22.53
2022-11-12T05:35:31.879Z,21.03
2022-11-12T05:37:59.853Z,21.17
2022-11-12T05:40:27.895Z,21.67
2022-11-12T05:42:57.262Z,21.10
2022-11-12T05:45:25.212Z,21.77
2022-11-12T05:47:53.202Z,21.57
2022-11-12T05:50:21.228Z,21.67
2022-11-12T05:52:49.270Z,21.47
2022-11-12T05:55:17.361Z,21.77
2022-11-12T05:57:45.345Z,20.70
2022-11-12T06:00:15.854Z,20.17
2022-11-12T06:02:43.990Z,20.83
2022-11-12T06:05:12.037Z,20.10
2022-11-12T06:07:40.831Z,19.73
2022-11-12T06:10:09.790Z,20.87
2022-11-12T06:12:37.785Z,20.30
2022-11-12T06:15:06.639Z,21.23
2022-11-12T06:17:36.042Z,20.27
2022-11-12T06:20:04.429Z,20.93
2022-11-12T06:22:32.424Z,19.73
2022-11-12T06:25:00.422Z,21.27
2022-11-12T06:27:28.409Z,19.87
2022-11-12T06:29:56.445Z,20.73
2022-11-12T06:32:25.188Z,20.47
2022-11-12T06:34:54.569Z,21.83
2022-11-12T06:37:22.855Z,20.67
2022-11-12T06:39:51.164Z,21.47
2022-11-12T06:42:19.407Z,20.70
2022-11-12T06:44:47.426Z,21.80
2022-11-12T06:47:15.492Z,22.43
2022-11-12T06:49:43.518Z,22.97
2022-11-12T06:52:16.574Z,23.27
2022-11-12T06:54:45.043Z,21.57
2022-11-12T06:57:13.228Z,22.20
2022-11-12T06:59:41.287Z,21.50
2022-11-12T07:02:12.310Z,22.10
2022-11-12T07:04:40.334Z,21.53
2022-11-12T07:07:10.908Z,21.50
2022-11-12T07:09:40.689Z,22.40
2022-11-12T07:12:08.950Z,23.43
2022-11-12T07:14:36.985Z,22.73
2022-11-12T07:17:04.978Z,23.00
2022-11-12T07:19:32.971Z,23.33
2022-11-12T07:22:01.015Z,23.37
2022-11-12T07:24:29.062Z,24.27
2022-11-12T07:26:58.405Z,23.00
2022-11-12T07:29:46.167Z,23.90
2022-11-12T07:32:14.557Z,22.80
2022-11-12T07:34:42.577Z,23.90
2022-11-12T07:37:10.584Z,24.23
2022-11-12T07:39:38.597Z,25.00
2022-11-12T07:42:07.990Z,24.97
2022-11-12T07:44:35.960Z,23.73
2022-11-12T07:47:03.953Z,25.83
2022-11-12T07:49:31.965Z,26.37
2022-11-12T07:51:59.942Z,25.63
2022-11-12T07:54:28.002Z,24.97
2022-11-12T07:56:56.080Z,27.20
2022-11-12T07:59:25.430Z,26.07
2022-11-12T08:01:53.484Z,26.10
2022-11-12T08:04:21.562Z,24.77
2022-11-12T08:06:49.911Z,25.73
2022-11-12T08:09:18.048Z,26.83
2022-11-12T08:11:46.054Z,25.53
2022-11-12T08:14:14.061Z,25.93
2022-11-12T08:16:43.509Z,26.37
2022-11-12T08:19:11.508Z,26.53
2022-11-12T08:21:39.527Z,26.90
2022-11-12T08:24:07.993Z,26.17
2022-11-12T08:26:35.986Z,27.03
2022-11-12T08:29:08.360Z,24.30
2022-11-12T08:31:37.396Z,25.97
2022-11-12T08:34:15.213Z,24.33
2022-11-12T08:36:46.678Z,25.27
2022-11-12T08:39:14.742Z,25.13
2022-11-12T08:41:42.768Z,23.03
2022-11-12T08:44:10.834Z,25.03
2022-11-12T08:46:38.908Z,23.47
2022-11-12T08:49:08.286Z,23.47
2022-11-12T08:51:36.291Z,22.13
2022-11-12T08:54:04.386Z,22.13
2022-11-12T08:56:33.944Z,21.77
2022-11-12T08:59:07.068Z,22.97
2022-11-12T09:01:35.712Z,22.80
2022-11-12T09:04:03.872Z,24.67
2022-11-12T09:06:33.288Z,22.23
2022-11-12T09:09:01.402Z,19.33
2022-11-12T09:11:29.428Z,22.13
2022-11-12T09:13:57.612Z,19.83
2022-11-12T09:16:25.693Z,20.97
2022-11-12T09:18:53.729Z,22.20
2022-11-12T09:21:24.773Z,22.20
2022-11-12T09:23:54.267Z,21.50
2022-11-12T09:26:22.416Z,21.07
2022-11-12T09:28:52.371Z,22.07
2022-11-12T09:31:20.461Z,20.53
2022-11-12T09:33:48.519Z,20.67
2022-11-12T09:36:17.645Z,21.07
2022-11-12T09:38:45.692Z,23.30
2022-11-12T09:41:21.441Z,22.63
2022-11-12T09:43:51.952Z,20.77
2022-11-12T09:46:34.748Z,18.47
2022-11-12T09:49:08.722Z,21.47
2022-11-12T09:51:40.226Z,20.43
2022-11-12T09:54:19.222Z,18.83
2022-11-12T09:56:50.092Z,17.33
2022-11-12T09:59:19.133Z,20.10
2022-11-12T10:02:23.462Z,20.03
2022-11-12T10:05:14.637Z,17.40
2022-11-12T10:07:59.933Z,20.57
2022-11-12T10:10:40.382Z,20.07
2022-11-12T10:13:21.941Z,20.77
2022-11-12T10:16:21.952Z,16.80
2022-11-12T10:19:05.448Z,19.27
2022-11-12T10:21:42.198Z,20.57
2022-11-12T10:24:12.376Z,18.67
2022-11-12T10:26:41.165Z,19.40
2022-11-12T10:29:18.106Z,19.63
2022-11-12T10:31:46.233Z,19.70
2022-11-12T10:34:19.206Z,21.00
2022-11-12T10:36:52.981Z,19.73
2022-11-12T10:39:33.619Z,16.57
2022-11-12T10:42:07.250Z,16.87
2022-11-12T10:44:36.811Z,16.97
2022-11-12T10:47:25.612Z,14.63
2022-11-12T10:50:13.950Z,15.63
2022-11-12T10:52:55.266Z,16.43
2022-11-12T10:55:25.798Z,17.03
2022-11-12T10:58:19.703Z,15.73
2022-11-12T11:00:58.725Z,17.60
2022-11-12T11:03:28.860Z,17.43
2022-11-12T11:06:00.310Z,16.27
2022-11-12T11:08:37.084Z,14.40
2022-11-12T11:11:35.675Z,15.53
2022-11-12T11:14:31.749Z,14.57
2022-11-12T11:17:04.634Z,15.33
2022-11-12T11:19:37.649Z,15.03
2022-11-12T11:22:18.705Z,13.33
2022-11-12T11:24:57.353Z,15.27
2022-11-12T11:27:33.081Z,11.57
2022-11-12T11:30:09.059Z,13.47
2022-11-12T11:33:12.859Z,12.70
2022-11-12T11:35:53.973Z,13.77
2022-11-12T11:38:32.789Z,12.40
2022-11-12T11:41:14.545Z,12.77
2022-11-12T11:43:52.564Z,10.47
2022-11-12T11:46:32.601Z,11.80
2022-11-12T11:49:20.380Z,12.70
2022-11-12T11:51:56.893Z,12.20
2022-11-12T11:54:43.511Z,12.93
2022-11-12T11:57:16.394Z,13.67
2022-11-12T11:59:59.880Z,11.63
2022-11-12T12:02:47.445Z,12.30
2022-11-12T12:05:30.575Z,10.83
2022-11-12T12:08:04.059Z,11.73
2022-11-12T12:11:06.856Z,14.63
2022-11-12T12:13:43.341Z,13.97
2022-11-12T12:16:40.558Z,13.10
2022-11-12T12:19:21.300Z,11.67
2022-11-12T12:21:51.925Z,12.50
2022-11-12T12:24:25.952Z,12.17
2022-11-12T12:26:57.256Z,13.17
2022-11-12T12:29:31.081Z,12.90
2022-11-12T12:32:13.223Z,12.57
2022-11-12T12:34:46.118Z,12.63
2022-11-12T12:37:23.669Z,11.50
2022-11-12T12:39:57.370Z,13.47
2022-11-12T12:42:31.011Z,14.13
2022-11-12T12:45:02.157Z,12.27
2022-11-12T12:47:31.984Z,11.30
2022-11-12T12:50:01.601Z,11.67
2022-11-12T12:52:29.577Z,11.33
2022-11-12T12:54:59.646Z,11.33
2022-11-12T12:57:31.279Z,10.80
2022-11-12T13:00:28.779Z,11.47
2022-11-12T13:02:57.521Z,10.67
2022-11-12T13:05:29.855Z,9.73
2022-11-12T13:08:02.439Z,11.47
2022-11-12T13:10:53.158Z,17.57
2022-11-12T13:13:32.376Z,13.03
2022-11-12T13:16:02.360Z,15.30
2022-11-12T13:19:02.427Z,12.73
2022-11-12T13:21:31.222Z,13.97
2022-11-12T13:24:07.810Z,14.50
2022-11-12T13:26:50.098Z,14.10
2022-11-12T13:29:45.693Z,14.53
2022-11-12T13:32:34.455Z,12.87
2022-11-12T13:35:34.765Z,12.30
2022-11-12T13:38:06.361Z,13.53
2022-11-12T13:40:46.409Z,14.23
2022-11-12T13:43:44.316Z,14.93
2022-11-12T13:46:25.988Z,14.43
2022-11-12T13:49:00.106Z,13.37
2022-11-12T13:51:39.352Z,14.87
2022-11-12T13:54:30.037Z,13.50
2022-11-12T13:56:58.131Z,13.40
2022-11-12T13:59:27.805Z,14.67
2022-11-12T14:01:57.445Z,14.23
2022-11-12T14:04:26.384Z,12.50
2022-11-12T14:06:59.949Z,13.23
2022-11-12T14:09:49.177Z,14.00
2022-11-12T14:12:35.714Z,14.23
2022-11-12T14:15:18.089Z,14.93
2022-11-12T14:17:52.346Z,14.40
2022-11-12T14:20:35.293Z,13.30
2022-11-12T14:23:10.017Z,13.30
2022-11-12T14:25:48.201Z,13.67
2022-11-12T14:28:28.319Z,14.53
2022-11-12T14:30:59.083Z,14.00
2022-11-12T14:33:28.634Z,14.30
2022-11-12T14:36:03.095Z,13.93
2022-11-12T14:38:37.016Z,14.73
2022-11-12T14:41:09.259Z,14.40
2022-11-12T14:43:39.387Z,14.97
2022-11-12T14:46:20.255Z,15.03
2022-11-12T14:48:51.656Z,17.53
2022-11-12T14:51:20.584Z,15.93
2022-11-12T14:53:52.766Z,18.17
2022-11-12T14:56:31.229Z,15.93
2022-11-12T14:59:02.725Z,16.70
2022-11-12T15:04:26.027Z,16.00
2022-11-12T15:06:55.755Z,15.97
2022-11-12T15:09:35.860Z,15.57
2022-11-12T15:12:05.452Z,15.97
2022-11-12T15:14:34.455Z,17.50
2022-11-12T15:17:05.627Z,15.67
2022-11-12T15:19:34.411Z,16.70
2022-11-12T15:22:04.192Z,19.30
2022-11-12T15:24:33.733Z,18.13
2022-11-12T15:27:04.310Z,18.43
2022-11-12T15:29:34.838Z,14.63
2022-11-12T15:32:25.258Z,17.37
2022-11-12T15:34:53.303Z,17.90
2022-11-12T15:37:25.844Z,17.53
2022-11-12T15:39:56.599Z,16.60
2022-11-12T15:42:28.777Z,21.57
2022-11-12T15:45:00.909Z,20.67
2022-11-12T15:47:30.641Z,16.50
2022-11-12T15:49:59.935Z,20.63
2022-11-12T15:52:28.483Z,17.47
2022-11-12T15:54:56.497Z,18.03
2022-11-12T15:57:29.553Z,19.97
2022-11-12T16:00:06.559Z,22.90
2022-11-12T16:02:37.150Z,21.20
2022-11-12T16:05:05.394Z,21.90
2022-11-12T16:07:33.398Z,18.50
2022-11-12T16:10:01.407Z,22.33
2022-11-12T16:12:30.486Z,21.30
2022-11-12T16:14:59.455Z,22.83
2022-11-12T16:17:27.518Z,20.70
2022-11-12T16:19:56.847Z,23.20
2022-11-12T16:22:24.972Z,19.70
2022-11-12T16:24:52.969Z,21.10
2022-11-12T16:27:22.928Z,20.50
2022-11-12T16:29:50.922Z,18.60
2022-11-12T16:32:19.202Z,16.63
2022-11-12T16:34:47.215Z,18.93
2022-11-12T16:37:17.217Z,16.57
2022-11-12T16:39:45.716Z,15.17
2022-11-12T16:42:13.964Z,16.80
2022-11-12T16:44:42.126Z,16.93
2022-11-12T16:47:12.733Z,16.23
2022-11-12T16:49:42.741Z,17.17
2022-11-12T16:52:11.267Z,16.97
2022-11-12T16:54:40.632Z,18.80
2022-11-12T16:57:11.403Z,20.80
2022-11-12T16:59:39.481Z,21.17
2022-11-12T17:02:14.400Z,21.30
2022-11-12T17:04:42.388Z,19.67
2022-11-12T17:07:10.514Z,22.27
2022-11-12T17:09:39.907Z,22.53
2022-11-12T17:12:08.242Z,36.57
2022-11-12T17:14:36.611Z,38.10
2022-11-12T17:17:04.648Z,28.83
2022-11-12T17:19:32.735Z,28.70
2022-11-12T17:22:00.717Z,25.80
2022-11-12T17:24:28.914Z,22.87
2022-11-12T17:27:00.145Z,21.10
2022-11-12T17:29:28.497Z,20.20
2022-11-12T17:31:56.489Z,19.00
2022-11-12T17:34:24.791Z,17.83
2022-11-12T17:36:53.017Z,20.97
2022-11-12T17:39:21.033Z,27.77
2022-11-12T17:41:49.046Z,28.33
2022-11-12T17:44:20.176Z,25.40
2022-11-12T17:46:49.164Z,24.00
2022-11-12T17:49:17.818Z,24.37
2022-11-12T17:51:45.927Z,22.43
2022-11-12T17:54:14.025Z,23.50
2022-11-12T17:56:42.035Z,20.63
2022-11-12T17:59:10.245Z,21.10
2022-11-12T18:01:39.755Z,20.73
2022-11-12T18:04:07.762Z,18.57
2022-11-12T18:06:36.308Z,18.03
2022-11-12T18:09:06.688Z,20.13
2022-11-12T18:11:43.042Z,19.67
2022-11-12T18:14:11.747Z,19.63
2022-11-12T18:16:41.696Z,20.07
2022-11-12T18:19:11.109Z,19.07
2022-11-12T18:21:40.346Z,19.50
2022-11-12T18:24:14.321Z,18.53
2022-11-12T18:26:42.991Z,18.90
2022-11-12T18:29:11.062Z,18.80
2022-11-12T18:31:40.785Z,23.10
2022-11-12T18:34:11.653Z,21.63
2022-11-12T18:36:39.695Z,20.47
2022-11-12T18:39:07.713Z,18.57
2022-11-12T18:41:35.741Z,18.00
2022-11-12T18:44:03.765Z,19.10
2022-11-12T18:46:31.798Z,18.53
2022-11-12T18:49:01.143Z,20.03
2022-11-12T18:51:29.154Z,16.50
2022-11-12T18:53:57.139Z,17.83
2022-11-12T18:56:25.147Z,16.67
2022-11-12T18:58:53.118Z,17.27
2022-11-12T19:01:22.910Z,16.63
2022-11-12T19:03:54.979Z,16.77
2022-11-12T19:06:25.030Z,17.50
2022-11-12T19:08:53.290Z,18.23
2022-11-12T19:11:21.907Z,20.20
2022-11-12T19:13:52.652Z,17.50
2022-11-12T19:16:22.850Z,17.27
2022-11-12T19:18:52.082Z,16.13
2022-11-12T19:21:23.240Z,16.43
2022-11-12T19:23:54.763Z,17.90
2022-11-12T19:26:24.150Z,17.10
2022-11-12T19:28:52.655Z,16.17
2022-11-12T19:31:22.899Z,19.47
2022-11-12T19:33:51.643Z,17.47
2022-11-12T19:36:22.176Z,17.77
2022-11-12T19:38:56.765Z,17.70
2022-11-12T19:41:25.416Z,18.40
2022-11-12T19:43:53.813Z,18.03
2022-11-12T19:46:22.165Z,18.97
2022-11-12T19:48:51.176Z,19.70
2022-11-12T19:51:19.248Z,20.07
2022-11-12T19:53:47.414Z,18.50
2022-11-12T19:56:18.854Z,20.17
2022-11-12T19:58:48.111Z,20.67
2022-11-12T20:01:18.645Z,22.37
2022-11-12T20:03:47.361Z,21.37
2022-11-12T20:06:17.750Z,21.30
2022-11-12T20:08:46.285Z,19.80
2022-11-12T20:11:18.400Z,21.90
2022-11-12T20:13:46.817Z,22.17
2022-11-12T20:16:20.791Z,22.33
2022-11-12T20:18:54.371Z,22.87
2022-11-12T20:21:22.621Z,22.17
2022-11-12T20:23:50.640Z,21.33
2022-11-12T20:26:20.054Z,22.23
2022-11-12T20:28:48.417Z,23.17
2022-11-12T20:31:20.485Z,23.63
2022-11-12T20:33:50.907Z,23.30
2022-11-12T20:36:20.927Z,22.70
2022-11-12T20:38:50.547Z,24.50
2022-11-12T20:41:21.646Z,24.37
2022-11-12T20:43:52.882Z,25.50
2022-11-12T20:46:21.100Z,26.57
2022-11-12T20:48:49.348Z,28.20
2022-11-12T20:51:24.592Z,27.33
2022-11-12T20:53:59.481Z,27.90
2022-11-12T20:56:31.265Z,27.60
2022-11-12T20:59:00.237Z,28.90
2022-11-12T21:01:29.605Z,28.37
2022-11-12T21:03:58.471Z,30.20
2022-11-12T21:06:28.477Z,30.83
2022-11-12T21:08:59.245Z,29.63
2022-11-12T21:11:27.272Z,31.33
2022-11-12T21:13:56.618Z,30.33
2022-11-12T21:16:26.020Z,31.37
2022-11-12T21:18:54.034Z,31.50
2022-11-12T21:21:22.057Z,33.90
2022-11-12T21:23:51.149Z,32.50
2022-11-12T21:26:20.428Z,32.77
2022-11-12T21:28:50.190Z,34.03
2022-11-12T21:31:21.888Z,33.60
2022-11-12T21:33:53.240Z,33.30
2022-11-12T21:36:22.873Z,35.63
2022-11-12T21:38:51.136Z,36.50
2022-11-12T21:41:21.208Z,35.57
2022-11-12T21:43:49.802Z,36.37
2022-11-12T21:46:21.073Z,37.10
2022-11-12T21:48:54.781Z,35.03
2022-11-12T21:51:25.122Z,35.43
2022-11-12T21:53:57.420Z,35.30
2022-11-12T21:56:25.703Z,35.67
2022-11-12T21:58:56.045Z,36.67
2022-11-12T22:01:26.583Z,36.90
2022-11-12T22:03:55.954Z,36.53
2022-11-12T22:06:25.960Z,35.53
2022-11-12T22:08:54.551Z,37.10
2022-11-12T22:11:23.559Z,38.97
2022-11-12T22:13:51.588Z,39.63
2022-11-12T22:16:21.403Z,37.97
2022-11-12T22:18:52.614Z,42.23
2022-11-12T22:21:22.383Z,50.23
2022-11-12T22:23:50.831Z,46.27
2022-11-12T22:26:21.910Z,42.10
2022-11-12T22:28:50.174Z,39.37
2022-11-12T22:31:20.329Z,39.60
2022-11-12T22:33:50.000Z,41.60
2022-11-12T22:36:20.409Z,40.53
2022-11-12T22:38:50.405Z,39.57
2022-11-12T22:41:19.743Z,38.77
2022-11-12T22:43:48.700Z,41.17
2022-11-12T22:46:18.597Z,39.10
2022-11-12T22:48:46.652Z,40.33
2022-11-12T22:51:17.986Z,40.13
2022-11-12T22:53:46.082Z,38.93
2022-11-12T22:56:16.121Z,41.23
2022-11-12T22:58:46.118Z,41.77
2022-11-12T23:01:20.331Z,41.53
2022-11-12T23:03:48.705Z,38.77
2022-11-12T23:06:19.128Z,40.83
2022-11-12T23:08:47.558Z,39.53
2022-11-12T23:11:16.845Z,38.50
2022-11-12T23:13:45.181Z,37.93
2022-11-12T23:16:15.759Z,40.70
2022-11-12T23:18:43.996Z,39.80
2022-11-12T23:21:14.252Z,39.13
2022-11-12T23:23:44.262Z,40.07
2022-11-12T23:26:16.067Z,38.33
2022-11-12T23:28:44.128Z,38.17
2022-11-12T23:31:14.317Z,41.20
2022-11-12T23:33:45.700Z,37.50
2022-11-12T23:36:15.446Z,39.40
2022-11-12T23:38:45.357Z,42.43
2022-11-12T23:41:15.253Z,39.77
2022-11-12T23:43:44.037Z,39.70
2022-11-12T23:46:12.829Z,41.07
2022-11-12T23:48:41.099Z,40.10
2022-11-12T23:51:11.544Z,40.20
2022-11-12T23:53:40.525Z,39.50
2022-11-12T23:56:11.858Z,39.30
2022-11-12T23:58:41.827Z,39.07
